createdAt,value
2023-05-04T00:00:34.274Z,18.24
2023-05-04T00:03:02.004Z,18.40
2023-05-04T00:05:29.182Z,18.80
2023-05-04T00:07:56.481Z,19.11
2023-05-04T00:10:23.647Z,19.01
2023-05-04T00:12:50.858Z,19.23
2023-05-04T00:15:18.788Z,19.35
2023-05-04T00:17:46.014Z,19.89
2023-05-04T00:20:13.375Z,21.10
2023-05-04T00:22:41.097Z,22.40
2023-05-04T00:25:08.740Z,22.84
2023-05-04T00:27:35.854Z,23.45
2023-05-04T00:30:03.510Z,23.68
2023-05-04T00:32:32.243Z,23.50
2023-05-04T00:34:59.720Z,23.94
2023-05-04T00:37:27.234Z,24.38
2023-05-04T00:39:54.608Z,24.93
2023-05-04T00:42:22.126Z,26.00
2023-05-04T00:44:49.735Z,27.06
2023-05-04T00:47:19.790Z,27.63
2023-05-04T00:49:47.307Z,27.90
2023-05-04T00:52:14.635Z,28.16
2023-05-04T00:54:43.623Z,27.93
2023-05-04T00:57:11.013Z,26.92
2023-05-04T00:59:39.081Z,26.27
2023-05-04T01:02:06.376Z,25.70
2023-05-04T01:04:33.723Z,24.84
2023-05-04T01:07:08.481Z,24.42
2023-05-04T01:09:51.773Z,24.09
2023-05-04T01:12:25.580Z,24.14
2023-05-04T01:14:53.699Z,23.82
2023-05-04T01:17:22.628Z,23.56
2023-05-04T01:19:50.909Z,23.38
2023-05-04T01:22:18.399Z,23.09
2023-05-04T01:24:45.503Z,22.75
2023-05-04T01:27:44.944Z,22.81
2023-05-04T01:30:17.268Z,23.28
2023-05-04T01:32:45.036Z,23.37
2023-05-04T01:35:13.625Z,22.88
2023-05-04T01:37:40.984Z,22.17
2023-05-04T01:40:09.144Z,21.39
2023-05-04T01:42:36.247Z,20.75
2023-05-04T01:45:05.329Z,20.24
2023-05-04T01:47:32.449Z,19.86
2023-05-04T01:49:59.824Z,20.00
2023-05-04T01:52:26.979Z,19.90
2023-05-04T01:54:54.297Z,19.66
2023-05-04T01:57:21.966Z,19.62
2023-05-04T01:59:48.994Z,19.61
2023-05-04T02:02:16.613Z,19.99
2023-05-04T02:04:43.665Z,19.84
2023-05-04T02:07:10.860Z,19.66
2023-05-04T02:09:38.378Z,19.74
2023-05-04T02:12:05.519Z,20.24
2023-05-04T02:14:33.036Z,21.39
2023-05-04T02:17:00.060Z,21.40
2023-05-04T02:19:27.642Z,21.99
2023-05-04T02:21:55.388Z,22.25
2023-05-04T02:24:22.671Z,22.76
2023-05-04T02:26:50.046Z,23.59
2023-05-04T02:29:17.433Z,22.66
2023-05-04T02:31:45.235Z,21.68
2023-05-04T02:34:14.130Z,22.30
2023-05-04T02:36:47.145Z,22.59
2023-05-04T02:39:14.451Z,22.58
2023-05-04T02:41:42.083Z,22.92
2023-05-04T02:44:09.376Z,22.97
2023-05-04T02:46:36.750Z,21.75
2023-05-04T02:49:04.029Z,21.55
2023-05-04T02:51:31.461Z,21.27
2023-05-04T02:53:58.887Z,20.44
2023-05-04T02:56:26.563Z,19.68
2023-05-04T02:58:54.102Z,18.76
2023-05-04T03:01:21.592Z,17.56
2023-05-04T03:03:49.396Z,16.48
2023-05-04T03:06:16.526Z,15.81
2023-05-04T03:08:43.569Z,15.27
2023-05-04T03:11:11.038Z,14.84
2023-05-04T03:13:38.407Z,14.57
2023-05-04T03:16:05.758Z,14.36
2023-05-04T03:21:18.257Z,14.47
2023-05-04T03:23:45.851Z,14.79
2023-05-04T03:26:13.472Z,15.08
2023-05-04T03:28:40.683Z,15.87
2023-05-04T03:31:08.478Z,16.50
2023-05-04T03:33:36.143Z,16.52
2023-05-04T03:36:03.522Z,15.66
2023-05-04T03:38:31.564Z,14.81
2023-05-04T03:40:59.851Z,14.35
2023-05-04T03:43:27.009Z,14.14
2023-05-04T03:45:57.106Z,14.30
2023-05-04T03:48:24.514Z,14.68
2023-05-04T03:50:51.721Z,14.69
2023-05-04T03:53:19.810Z,14.33
2023-05-04T03:55:47.057Z,14.07
2023-05-04T03:58:14.782Z,13.76
2023-05-04T04:00:42.456Z,13.72
2023-05-04T04:03:14.864Z,14.09
2023-05-04T04:05:42.666Z,14.29
2023-05-04T04:08:10.571Z,14.42
2023-05-04T04:10:37.546Z,14.75
2023-05-04T04:13:04.927Z,14.65
2023-05-04T04:15:32.301Z,14.65
2023-05-04T04:18:00.049Z,14.68
2023-05-04T04:20:27.360Z,14.51
2023-05-04T04:22:54.665Z,13.87
2023-05-04T04:25:22.291Z,13.35
2023-05-04T04:27:49.694Z,13.46
2023-05-04T04:30:17.106Z,13.59
2023-05-04T04:32:45.842Z,13.91
2023-05-04T04:35:14.029Z,14.26
2023-05-04T04:37:41.412Z,14.27
2023-05-04T04:40:10.249Z,14.03
2023-05-04T04:42:37.325Z,14.21
2023-05-04T04:45:05.619Z,14.14
2023-05-04T04:47:33.108Z,14.05
2023-05-04T04:50:00.774Z,13.79
2023-05-04T04:52:28.190Z,13.78
2023-05-04T04:54:56.547Z,13.87
2023-05-04T04:57:23.879Z,13.96
2023-05-04T04:59:51.204Z,14.02
2023-05-04T05:02:18.492Z,14.43
2023-05-04T05:04:46.244Z,14.63
2023-05-04T05:07:13.403Z,14.74
2023-05-04T05:09:40.713Z,14.45
2023-05-04T05:12:07.938Z,14.01
2023-05-04T05:14:35.058Z,13.69
2023-05-04T05:17:04.955Z,13.83
2023-05-04T05:19:36.831Z,14.29
2023-05-04T05:22:04.668Z,14.55
2023-05-04T05:24:32.262Z,14.53
2023-05-04T05:27:00.020Z,14.55
2023-05-04T05:29:27.340Z,14.39
2023-05-04T05:31:54.632Z,14.09
2023-05-04T05:34:21.663Z,13.85
2023-05-04T05:36:49.227Z,13.83
2023-05-04T05:39:16.421Z,14.06
2023-05-04T05:41:43.402Z,14.59
2023-05-04T05:44:12.924Z,14.86
2023-05-04T05:46:40.695Z,15.23
2023-05-04T05:49:07.922Z,15.64
2023-05-04T05:51:35.597Z,16.05
2023-05-04T05:54:03.054Z,15.73
2023-05-04T05:56:30.122Z,15.16
2023-05-04T05:58:57.534Z,14.92
2023-05-04T06:01:26.310Z,14.73
2023-05-04T06:03:53.576Z,14.58
2023-05-04T06:06:21.154Z,14.80
2023-05-04T06:08:48.648Z,15.28
2023-05-04T06:11:16.342Z,15.69
2023-05-04T06:13:43.307Z,15.74
2023-05-04T06:16:10.898Z,15.74
2023-05-04T06:18:37.904Z,15.86
2023-05-04T06:21:05.185Z,16.16
2023-05-04T06:23:32.224Z,16.10
2023-05-04T06:25:59.657Z,16.03
2023-05-04T06:28:27.318Z,15.85
2023-05-04T06:30:54.428Z,15.78
2023-05-04T06:33:21.776Z,15.98
2023-05-04T06:35:49.166Z,16.02
2023-05-04T06:38:16.804Z,16.27
2023-05-04T06:40:43.966Z,16.24
2023-05-04T06:43:11.303Z,16.07
2023-05-04T06:45:39.106Z,15.85
2023-05-04T06:48:07.508Z,15.76
2023-05-04T06:50:35.906Z,15.45
2023-05-04T06:53:04.272Z,15.27
2023-05-04T06:55:31.884Z,14.95
2023-05-04T06:57:58.916Z,14.55
2023-05-04T07:00:26.794Z,14.35
2023-05-04T07:02:54.169Z,14.22
2023-05-04T07:05:22.019Z,14.26
2023-05-04T07:07:51.264Z,14.25
2023-05-04T07:10:19.229Z,14.41
2023-05-04T07:12:46.653Z,14.58
2023-05-04T07:15:14.300Z,14.51
2023-05-04T07:17:41.579Z,14.49
2023-05-04T07:20:09.013Z,14.48
2023-05-04T07:22:36.272Z,14.22
2023-05-04T07:25:04.165Z,13.98
2023-05-04T07:27:31.310Z,13.78
2023-05-04T07:29:58.782Z,13.77
2023-05-04T07:32:26.176Z,13.77
2023-05-04T07:34:53.814Z,13.95
2023-05-04T07:37:21.132Z,14.25
2023-05-04T07:39:48.182Z,14.85
2023-05-04T07:42:15.656Z,15.65
2023-05-04T07:44:43.646Z,16.34
2023-05-04T07:47:10.701Z,16.71
2023-05-04T07:49:38.024Z,16.89
2023-05-04T07:52:05.783Z,16.71
2023-05-04T07:54:32.891Z,16.60
2023-05-04T07:57:05.035Z,16.59
2023-05-04T07:59:32.456Z,16.52
2023-05-04T08:01:59.908Z,16.20
2023-05-04T08:04:27.394Z,15.65
2023-05-04T08:06:54.473Z,15.31
2023-05-04T08:09:21.599Z,15.14
2023-05-04T08:11:49.192Z,14.83
2023-05-04T08:14:16.506Z,14.66
2023-05-04T08:16:43.658Z,14.59
2023-05-04T08:19:12.111Z,14.73
2023-05-04T08:21:40.392Z,14.99
2023-05-04T08:24:07.723Z,15.41
2023-05-04T08:26:37.293Z,15.72
2023-05-04T08:29:07.992Z,16.03
2023-05-04T08:31:36.021Z,16.39
2023-05-04T08:34:03.988Z,16.62
2023-05-04T08:36:31.761Z,16.97
2023-05-04T08:38:58.869Z,17.15
2023-05-04T08:41:26.343Z,17.40
2023-05-04T08:43:53.776Z,17.70
2023-05-04T08:46:21.339Z,17.90
2023-05-04T08:48:48.715Z,18.01
2023-05-04T08:51:16.382Z,17.92
2023-05-04T08:53:45.715Z,17.91
2023-05-04T08:56:13.810Z,17.80
2023-05-04T08:58:52.979Z,17.39
2023-05-04T09:01:20.501Z,16.88
2023-05-04T09:03:47.752Z,16.57
2023-05-04T09:06:15.223Z,16.43
2023-05-04T09:08:42.970Z,16.24
2023-05-04T09:11:10.471Z,15.97
2023-05-04T09:13:38.314Z,15.78
2023-05-04T09:16:06.105Z,15.69
2023-05-04T09:18:40.128Z,15.66
2023-05-04T09:21:07.996Z,15.55
2023-05-04T09:23:48.715Z,15.33
2023-05-04T09:26:26.784Z,15.21
2023-05-04T09:28:55.085Z,15.04
2023-05-04T09:31:23.133Z,14.98
2023-05-04T09:33:53.290Z,14.86
2023-05-04T09:36:21.574Z,14.66
2023-05-04T09:38:49.353Z,14.49
2023-05-04T09:41:16.784Z,14.42
2023-05-04T09:43:44.490Z,14.46
2023-05-04T09:46:18.570Z,14.37
2023-05-04T09:48:53.417Z,14.28
2023-05-04T09:51:22.530Z,14.23
2023-05-04T09:53:50.514Z,14.20
2023-05-04T09:56:20.372Z,14.25
2023-05-04T09:58:47.690Z,14.37
2023-05-04T10:01:14.786Z,14.42
2023-05-04T10:03:42.855Z,14.42
2023-05-04T10:06:10.641Z,14.42
2023-05-04T10:08:38.523Z,14.44
2023-05-04T10:11:06.065Z,14.57
2023-05-04T10:13:33.433Z,14.65
2023-05-04T10:16:38.293Z,14.59
2023-05-04T10:19:23.171Z,14.49
2023-05-04T10:21:55.608Z,14.39
2023-05-04T10:24:26.728Z,14.48
2023-05-04T10:27:09.733Z,14.64
2023-05-04T10:29:37.191Z,14.72
2023-05-04T10:32:05.003Z,14.73
2023-05-04T10:34:32.993Z,14.84
2023-05-04T10:37:00.940Z,15.01
2023-05-04T10:39:30.567Z,15.21
2023-05-04T10:42:03.346Z,15.28
2023-05-04T10:44:32.693Z,15.31
2023-05-04T10:47:01.653Z,15.21
2023-05-04T10:49:29.161Z,15.02
2023-05-04T10:52:06.359Z,14.94
2023-05-04T10:54:34.513Z,14.84
2023-05-04T10:57:12.276Z,14.78
2023-05-04T10:59:40.828Z,14.75
2023-05-04T11:02:08.784Z,14.66
2023-05-04T11:04:36.162Z,14.61
2023-05-04T11:07:08.370Z,14.52
2023-05-04T11:09:37.420Z,14.45
2023-05-04T11:12:05.750Z,14.38
2023-05-04T11:14:37.327Z,14.31
2023-05-04T11:19:50.674Z,14.25
2023-05-04T11:22:18.492Z,14.18
2023-05-04T11:24:46.556Z,14.01
2023-05-04T11:27:29.590Z,13.87
2023-05-04T11:30:01.163Z,13.75
2023-05-04T11:32:38.951Z,13.64
2023-05-04T11:35:18.756Z,13.46
2023-05-04T11:37:46.792Z,13.34
2023-05-04T11:40:16.424Z,13.22
2023-05-04T11:42:43.830Z,13.12
2023-05-04T11:45:14.178Z,13.05
2023-05-04T11:47:41.350Z,13.03
2023-05-04T11:50:10.760Z,12.98
2023-05-04T11:52:40.471Z,12.94
2023-05-04T11:55:12.124Z,12.93
2023-05-04T11:57:39.488Z,12.92
2023-05-04T12:00:07.994Z,12.89
2023-05-04T12:02:35.653Z,12.90
2023-05-04T12:05:03.275Z,12.94
2023-05-04T12:07:35.342Z,12.94
2023-05-04T12:10:02.848Z,12.94
2023-05-04T12:12:35.444Z,12.94
2023-05-04T12:15:03.132Z,12.94
2023-05-04T12:17:41.105Z,12.93
2023-05-04T12:20:08.671Z,12.87
2023-05-04T12:22:36.000Z,12.82
2023-05-04T12:25:03.651Z,12.79
2023-05-04T12:27:31.428Z,12.75
2023-05-04T12:29:58.532Z,12.71
2023-05-04T12:32:26.062Z,12.71
2023-05-04T12:34:53.042Z,12.68
2023-05-04T12:37:20.139Z,12.63
2023-05-04T12:39:47.249Z,12.55
2023-05-04T12:42:14.847Z,12.49
2023-05-04T12:44:42.043Z,12.40
2023-05-04T12:47:09.664Z,12.33
2023-05-04T12:49:36.824Z,12.25
2023-05-04T12:52:04.075Z,12.17
2023-05-04T12:54:31.089Z,12.08
2023-05-04T12:56:58.464Z,11.99
2023-05-04T12:59:26.211Z,11.90
2023-05-04T13:01:53.766Z,11.80
2023-05-04T13:04:21.274Z,11.70
2023-05-04T13:06:48.707Z,11.63
2023-05-04T13:09:16.256Z,11.51
2023-05-04T13:11:43.431Z,11.44
2023-05-04T13:14:11.379Z,11.37
2023-05-04T13:16:38.573Z,11.28
2023-05-04T13:19:06.185Z,11.15
2023-05-04T13:21:33.298Z,11.06
2023-05-04T13:24:01.777Z,10.96
2023-05-04T13:26:28.840Z,10.80
2023-05-04T13:28:55.887Z,10.67
2023-05-04T13:31:23.308Z,10.56
2023-05-04T13:33:50.723Z,10.43
2023-05-04T13:36:18.476Z,10.34
2023-05-04T13:38:45.877Z,10.27
2023-05-04T13:41:13.358Z,10.15
2023-05-04T13:43:40.488Z,10.02
2023-05-04T13:46:07.791Z,9.90
2023-05-04T13:48:35.448Z,9.80
2023-05-04T13:51:03.750Z,9.74
2023-05-04T13:53:31.667Z,9.66
2023-05-04T13:55:59.147Z,9.59
2023-05-04T13:58:26.461Z,9.49
2023-05-04T14:00:55.895Z,9.51
2023-05-04T14:03:23.172Z,9.48
2023-05-04T14:05:51.429Z,9.43
2023-05-04T14:08:18.761Z,9.38
2023-05-04T14:10:46.452Z,9.31
2023-05-04T14:13:15.121Z,9.26
2023-05-04T14:15:42.275Z,9.22
2023-05-04T14:18:09.891Z,9.16
2023-05-04T14:20:37.274Z,9.09
2023-05-04T14:23:04.913Z,9.06
2023-05-04T14:25:31.965Z,8.95
2023-05-04T14:27:59.086Z,8.90
2023-05-04T14:30:27.604Z,8.85
2023-05-04T14:32:55.790Z,8.80
2023-05-04T14:35:23.116Z,8.80
2023-05-04T14:37:50.508Z,8.75
2023-05-04T14:40:17.573Z,8.69
2023-05-04T14:42:44.943Z,8.64
2023-05-04T14:45:12.409Z,8.58
2023-05-04T14:47:39.553Z,8.53
2023-05-04T14:50:07.990Z,8.49
2023-05-04T14:52:35.231Z,8.44
2023-05-04T14:55:04.118Z,8.38
2023-05-04T14:57:31.281Z,8.30
2023-05-04T14:59:58.983Z,8.27
2023-05-04T15:02:26.622Z,8.23
2023-05-04T15:04:54.080Z,8.20
2023-05-04T15:07:21.801Z,8.14
2023-05-04T15:09:49.140Z,8.09
2023-05-04T15:12:17.489Z,8.04
2023-05-04T15:14:46.126Z,7.98
2023-05-04T15:17:13.447Z,7.93
2023-05-04T15:19:40.839Z,7.88
2023-05-04T15:22:08.286Z,7.82
2023-05-04T15:24:35.530Z,7.76
2023-05-04T15:27:03.744Z,7.72
2023-05-04T15:29:31.153Z,7.66
2023-05-04T15:31:58.323Z,7.60
2023-05-04T15:34:25.422Z,7.55
2023-05-04T15:36:52.882Z,7.51
2023-05-04T15:39:19.955Z,7.49
2023-05-04T15:41:47.242Z,7.49
2023-05-04T15:44:15.026Z,7.45
2023-05-04T15:46:42.223Z,7.40
2023-05-04T15:49:10.084Z,7.37
2023-05-04T15:51:37.343Z,7.35
2023-05-04T15:54:04.549Z,7.35
2023-05-04T15:56:31.844Z,7.38
2023-05-04T15:58:59.027Z,7.39
2023-05-04T16:01:26.446Z,7.34
2023-05-04T16:03:55.073Z,7.31
2023-05-04T16:06:23.631Z,7.27
2023-05-04T16:08:51.418Z,7.25
2023-05-04T16:11:18.741Z,7.24
2023-05-04T16:13:46.435Z,7.17
2023-05-04T16:16:13.493Z,7.08
2023-05-04T16:18:40.903Z,7.05
2023-05-04T16:21:08.655Z,6.96
2023-05-04T16:23:36.143Z,6.87
2023-05-04T16:26:03.295Z,6.81
2023-05-04T16:28:30.273Z,6.77
2023-05-04T16:30:57.763Z,6.69
2023-05-04T16:33:26.275Z,6.65
2023-05-04T16:35:53.601Z,6.58
2023-05-04T16:38:21.127Z,6.54
2023-05-04T16:40:48.758Z,6.47
2023-05-04T16:43:16.202Z,6.42
2023-05-04T16:45:43.857Z,6.38
2023-05-04T16:48:10.911Z,6.37
2023-05-04T16:50:38.363Z,6.34
2023-05-04T16:53:05.732Z,6.32
2023-05-04T16:55:32.688Z,6.28
2023-05-04T16:58:00.375Z,6.22
2023-05-04T17:00:28.023Z,6.16
2023-05-04T17:02:55.616Z,6.07
2023-05-04T17:05:22.807Z,5.99
2023-05-04T17:07:50.706Z,5.93
2023-05-04T17:10:18.508Z,5.89
2023-05-04T17:12:46.129Z,5.82
2023-05-04T17:15:13.288Z,5.77
2023-05-04T17:17:41.258Z,5.71
2023-05-04T17:20:14.050Z,5.67
2023-05-04T17:22:41.731Z,5.63
2023-05-04T17:25:12.205Z,5.56
2023-05-04T17:27:40.204Z,5.51
2023-05-04T17:30:08.009Z,5.49
2023-05-04T17:32:37.264Z,5.46
2023-05-04T17:35:15.965Z,5.41
2023-05-04T17:37:51.325Z,5.41
2023-05-04T17:40:18.488Z,5.38
2023-05-04T17:42:47.331Z,5.34
2023-05-04T17:45:14.890Z,5.31
2023-05-04T17:47:43.619Z,5.22
2023-05-04T17:50:11.306Z,5.20
2023-05-04T17:52:38.363Z,5.16
2023-05-04T17:55:06.261Z,5.13
2023-05-04T17:57:33.971Z,5.10
2023-05-04T18:00:00.971Z,5.07
2023-05-04T18:02:30.702Z,5.02
2023-05-04T18:04:58.015Z,4.98
2023-05-04T18:07:25.872Z,4.94
2023-05-04T18:09:53.302Z,4.90
2023-05-04T18:12:20.340Z,4.85
2023-05-04T18:14:47.714Z,4.84
2023-05-04T18:17:14.926Z,4.79
2023-05-04T18:19:41.941Z,4.73
2023-05-04T18:22:09.247Z,4.68
2023-05-04T18:24:36.782Z,4.65
2023-05-04T18:27:04.447Z,4.63
2023-05-04T18:29:31.822Z,4.62
2023-05-04T18:32:00.983Z,4.57
2023-05-04T18:34:27.987Z,4.56
2023-05-04T18:36:55.207Z,4.53
2023-05-04T18:39:22.789Z,4.46
2023-05-04T18:41:50.093Z,4.42
2023-05-04T18:44:17.175Z,4.41
2023-05-04T18:46:44.718Z,4.42
2023-05-04T18:49:12.012Z,4.37
2023-05-04T18:51:41.325Z,4.36
2023-05-04T18:54:08.780Z,4.31
2023-05-04T18:56:36.290Z,4.28
2023-05-04T18:59:05.704Z,4.21
2023-05-04T19:01:33.207Z,4.16
2023-05-04T19:04:00.317Z,4.13
2023-05-04T19:06:27.529Z,4.09
2023-05-04T19:08:54.593Z,4.05
2023-05-04T19:11:21.653Z,4.01
2023-05-04T19:13:49.922Z,3.97
2023-05-04T19:16:17.830Z,3.95
2023-05-04T19:18:45.797Z,3.91
2023-05-04T19:21:12.937Z,3.90
2023-05-04T19:23:40.287Z,3.92
2023-05-04T19:26:07.561Z,3.92
2023-05-04T19:28:35.233Z,3.89
2023-05-04T19:31:02.553Z,3.87
2023-05-04T19:33:40.418Z,3.83
2023-05-04T19:36:15.725Z,3.79
2023-05-04T19:38:43.013Z,3.78
2023-05-04T19:41:10.050Z,3.72
2023-05-04T19:43:38.522Z,3.67
2023-05-04T19:46:05.879Z,3.64
2023-05-04T19:48:33.285Z,3.64
2023-05-04T19:51:00.336Z,3.62
2023-05-04T19:53:27.610Z,3.60
2023-05-04T19:55:55.318Z,3.59
2023-05-04T19:58:25.621Z,3.57
2023-05-04T20:00:53.532Z,3.55
2023-05-04T20:03:20.898Z,3.54
2023-05-04T20:05:48.768Z,3.52
2023-05-04T20:08:16.227Z,3.48
2023-05-04T20:10:43.537Z,3.48
2023-05-04T20:13:10.672Z,3.43
2023-05-04T20:15:37.868Z,3.43
2023-05-04T20:18:06.094Z,3.41
2023-05-04T20:20:33.613Z,3.39
2023-05-04T20:23:00.756Z,3.39
2023-05-04T20:25:28.530Z,3.35
2023-05-04T20:27:55.835Z,3.38
2023-05-04T20:30:23.400Z,3.35
2023-05-04T20:32:50.783Z,3.34
2023-05-04T20:35:18.610Z,3.33
2023-05-04T20:37:46.286Z,3.29
2023-05-04T20:40:16.630Z,3.22
2023-05-04T20:42:43.810Z,3.18
2023-05-04T20:45:11.056Z,3.09
2023-05-04T20:47:38.806Z,3.06
2023-05-04T20:50:07.720Z,2.99
2023-05-04T20:52:38.071Z,2.94
2023-05-04T20:55:07.151Z,2.89
2023-05-04T20:57:34.178Z,2.84
2023-05-04T21:00:01.608Z,2.79
2023-05-04T21:02:28.805Z,2.76
2023-05-04T21:04:56.482Z,2.70
2023-05-04T21:07:23.534Z,2.70
2023-05-04T21:09:56.182Z,2.69
2023-05-04T21:12:23.551Z,2.65
2023-05-04T21:14:50.685Z,2.57
2023-05-04T21:17:18.442Z,2.59
2023-05-04T21:19:45.771Z,2.51
2023-05-04T21:22:17.018Z,2.53
2023-05-04T21:24:46.282Z,2.49
2023-05-04T21:27:13.754Z,2.48
2023-05-04T21:29:40.920Z,2.42
2023-05-04T21:32:08.635Z,2.39
2023-05-04T21:34:36.013Z,2.33
2023-05-04T21:37:03.411Z,2.33
2023-05-04T21:39:31.593Z,2.32
2023-05-04T21:41:58.924Z,2.30
2023-05-04T21:44:25.975Z,2.25
2023-05-04T21:46:53.172Z,2.21
2023-05-04T21:49:20.682Z,2.20
2023-05-04T21:51:47.972Z,2.17
2023-05-04T21:54:15.624Z,2.12
2023-05-04T21:56:42.732Z,2.10
2023-05-04T21:59:10.105Z,2.10
2023-05-04T22:01:37.576Z,2.09
2023-05-04T22:04:07.597Z,2.10
2023-05-04T22:06:35.948Z,2.14
2023-05-04T22:09:03.865Z,2.14
2023-05-04T22:11:31.066Z,2.15
2023-05-04T22:13:58.978Z,2.18
2023-05-04T22:16:26.393Z,2.19
2023-05-04T22:18:53.736Z,2.23
2023-05-04T22:21:21.030Z,2.22
2023-05-04T22:23:48.689Z,2.27
2023-05-04T22:26:16.177Z,2.32
2023-05-04T22:28:43.157Z,2.38
2023-05-04T22:31:10.355Z,2.45
2023-05-04T22:33:37.386Z,2.51
2023-05-04T22:36:04.980Z,2.56
2023-05-04T22:38:32.086Z,2.58
2023-05-04T22:40:59.204Z,2.64
2023-05-04T22:43:26.216Z,2.74
2023-05-04T22:45:53.910Z,2.85
2023-05-04T22:48:21.398Z,3.18
2023-05-04T22:50:48.607Z,4.14
2023-05-04T22:53:16.054Z,5.44
2023-05-04T22:55:43.118Z,6.80
2023-05-04T22:58:11.012Z,8.05
2023-05-04T23:00:38.355Z,9.20
2023-05-04T23:03:06.127Z,10.32
2023-05-04T23:05:33.293Z,11.38
2023-05-04T23:08:00.776Z,12.38
2023-05-04T23:10:27.933Z,13.25
2023-05-04T23:12:55.872Z,14.15
2023-05-04T23:15:24.656Z,15.12
2023-05-04T23:17:51.824Z,15.93
2023-05-04T23:20:19.570Z,16.58
2023-05-04T23:22:46.659Z,17.19
2023-05-04T23:25:13.872Z,18.08
2023-05-04T23:27:41.074Z,18.68
2023-05-04T23:30:09.613Z,19.43
2023-05-04T23:32:36.863Z,20.12
2023-05-04T23:35:04.214Z,20.33
2023-05-04T23:37:32.019Z,20.59
2023-05-04T23:39:59.923Z,20.77
2023-05-04T23:42:27.135Z,21.23
2023-05-04T23:44:55.348Z,21.72
2023-05-04T23:47:22.982Z,21.84
2023-05-04T23:49:50.457Z,21.99
2023-05-04T23:52:17.759Z,22.40
2023-05-04T23:54:45.075Z,23.36
2023-05-04T23:57:12.331Z,24.25
2023-05-04T23:59:40.452Z,24.99
